createdAt,value
2017-09-26T00:01:17.176Z,42.47
2017-09-26T00:03:45.826Z,41.33
2017-09-26T00:06:13.295Z,41.70
2017-09-26T00:08:40.815Z,41.60
2017-09-26T00:11:08.270Z,39.37
2017-09-26T00:13:35.734Z,43.77
2017-09-26T00:16:03.226Z,40.27
2017-09-26T00:18:30.690Z,41.57
2017-09-26T00:20:58.162Z,39.70
2017-09-26T00:23:25.650Z,39.53
2017-09-26T00:25:53.146Z,43.77
2017-09-26T00:28:20.793Z,47.57
2017-09-26T00:30:48.266Z,49.03
2017-09-26T00:33:16.578Z,50.20
2017-09-26T00:35:44.049Z,50.63
2017-09-26T00:38:13.916Z,51.17
2017-09-26T00:40:41.391Z,50.67
2017-09-26T00:43:08.861Z,48.60
2017-09-26T00:45:36.338Z,47.73
2017-09-26T00:48:03.824Z,46.80
2017-09-26T00:50:31.282Z,45.67
2017-09-26T00:52:58.760Z,44.37
2017-09-26T00:55:26.222Z,45.90
2017-09-26T00:57:53.713Z,40.97
2017-09-26T01:00:21.173Z,38.37
2017-09-26T01:02:48.662Z,36.40
2017-09-26T01:05:22.902Z,32.17
2017-09-26T01:07:50.394Z,33.47
2017-09-26T01:10:17.964Z,30.10
2017-09-26T01:12:45.430Z,31.83
2017-09-26T01:15:12.898Z,32.63
2017-09-26T01:17:41.140Z,31.63
2017-09-26T01:20:08.604Z,32.03
2017-09-26T01:22:36.104Z,32.07
2017-09-26T01:25:03.574Z,30.27
2017-09-26T01:27:31.032Z,32.90
2017-09-26T01:29:58.609Z,34.13
2017-09-26T01:32:26.125Z,32.40
2017-09-26T01:34:53.654Z,34.77
2017-09-26T01:37:21.163Z,34.27
2017-09-26T01:39:49.402Z,34.03
2017-09-26T01:42:17.785Z,33.28
2017-09-26T01:44:45.249Z,33.80
2017-09-26T01:47:12.741Z,31.33
2017-09-26T01:49:40.205Z,32.47
2017-09-26T01:52:07.685Z,31.53
2017-09-26T01:54:35.149Z,32.27
2017-09-26T01:57:05.401Z,34.03
2017-09-26T01:59:39.478Z,36.47
2017-09-26T02:02:07.393Z,30.93
2017-09-26T02:04:34.881Z,31.07
2017-09-26T02:07:03.173Z,33.60
2017-09-26T02:09:30.630Z,31.27
2017-09-26T02:11:58.134Z,33.00
2017-09-26T02:14:25.598Z,33.30
2017-09-26T02:16:53.062Z,30.67
2017-09-26T02:19:20.637Z,30.17
2017-09-26T02:21:48.898Z,36.20
2017-09-26T02:24:16.349Z,33.90
2017-09-26T02:26:43.801Z,30.17
2017-09-26T02:29:11.326Z,32.40
2017-09-26T02:31:38.790Z,33.03
2017-09-26T02:34:06.287Z,33.90
2017-09-26T02:36:33.742Z,31.33
2017-09-26T02:39:01.198Z,31.30
2017-09-26T02:41:28.688Z,29.63
2017-09-26T02:43:56.149Z,31.30
2017-09-26T02:46:23.602Z,30.73
2017-09-26T02:48:51.122Z,33.07
2017-09-26T02:51:18.581Z,32.03
2017-09-26T02:53:46.049Z,29.87
2017-09-26T02:56:13.529Z,30.17
2017-09-26T02:58:41.810Z,29.90
2017-09-26T03:01:10.099Z,29.70
2017-09-26T03:03:37.562Z,29.70
2017-09-26T03:06:05.061Z,28.40
2017-09-26T03:08:32.541Z,30.23
2017-09-26T03:11:00.060Z,30.23
2017-09-26T03:13:27.546Z,33.47
2017-09-26T03:15:55.790Z,32.37
2017-09-26T03:18:23.283Z,34.17
2017-09-26T03:20:50.761Z,36.07
2017-09-26T03:23:18.865Z,36.40
2017-09-26T03:25:46.356Z,37.33
2017-09-26T03:28:13.894Z,40.00
2017-09-26T03:30:41.391Z,37.57
2017-09-26T03:33:08.849Z,39.50
2017-09-26T03:35:36.311Z,37.70
2017-09-26T03:38:03.800Z,39.13
2017-09-26T03:40:31.267Z,40.50
2017-09-26T03:42:58.737Z,41.07
2017-09-26T03:45:26.229Z,40.40
2017-09-26T03:47:53.697Z,41.77
2017-09-26T03:50:21.166Z,42.47
2017-09-26T03:52:50.362Z,43.90
2017-09-26T03:55:17.833Z,42.93
2017-09-26T03:57:45.374Z,42.20
2017-09-26T04:00:12.842Z,43.93
2017-09-26T04:02:40.308Z,43.90
2017-09-26T04:05:07.810Z,41.83
2017-09-26T04:07:35.340Z,42.87
2017-09-26T04:10:03.581Z,42.20
2017-09-26T04:12:31.172Z,42.40
2017-09-26T04:14:58.645Z,46.63
2017-09-26T04:17:26.115Z,40.93
2017-09-26T04:19:53.677Z,44.23
2017-09-26T04:22:21.178Z,42.03
2017-09-26T04:24:48.637Z,42.60
2017-09-26T04:27:16.113Z,43.00
2017-09-26T04:29:43.650Z,42.07
2017-09-26T04:32:11.114Z,43.55
2017-09-26T04:34:38.578Z,44.37
2017-09-26T04:37:06.075Z,43.00
2017-09-26T04:39:33.538Z,43.10
2017-09-26T04:42:01.005Z,43.27
2017-09-26T04:44:28.566Z,44.83
2017-09-26T04:46:56.033Z,45.33
2017-09-26T04:49:23.599Z,43.67
2017-09-26T04:51:51.056Z,43.00
2017-09-26T04:54:18.553Z,47.23
2017-09-26T04:56:46.018Z,45.97
2017-09-26T04:59:13.474Z,45.27
2017-09-26T05:01:40.964Z,45.33
2017-09-26T05:04:08.469Z,48.63
2017-09-26T05:06:35.946Z,43.00
2017-09-26T05:09:03.455Z,45.60
2017-09-26T05:11:30.926Z,48.87
2017-09-26T05:13:58.398Z,46.40
2017-09-26T05:16:25.874Z,45.80
2017-09-26T05:18:53.364Z,47.33
2017-09-26T05:21:21.737Z,45.60
2017-09-26T05:23:50.894Z,46.13
2017-09-26T05:26:18.390Z,45.20
2017-09-26T05:28:46.614Z,43.87
2017-09-26T05:31:14.306Z,47.10
2017-09-26T05:33:41.781Z,44.57
2017-09-26T05:36:09.250Z,47.57
2017-09-26T05:38:36.741Z,44.37
2017-09-26T05:41:04.233Z,46.50
2017-09-26T05:43:31.721Z,45.47
2017-09-26T05:45:59.998Z,47.93
2017-09-26T05:48:28.221Z,46.90
2017-09-26T05:50:55.699Z,47.03
2017-09-26T05:53:23.190Z,45.23
2017-09-26T05:55:52.240Z,46.37
2017-09-26T05:58:19.726Z,47.87
2017-09-26T06:00:47.250Z,44.87
2017-09-26T06:03:14.782Z,42.60
2017-09-26T06:05:42.257Z,45.57
2017-09-26T06:08:09.762Z,44.10
2017-09-26T06:10:37.305Z,46.07
2017-09-26T06:13:04.775Z,43.70
2017-09-26T06:15:32.238Z,45.77
2017-09-26T06:17:59.735Z,47.40
2017-09-26T06:20:27.206Z,44.60
2017-09-26T06:22:54.703Z,43.87
2017-09-26T06:25:22.169Z,42.57
2017-09-26T06:27:49.637Z,43.83
2017-09-26T06:30:17.130Z,44.73
2017-09-26T06:32:44.631Z,44.70
2017-09-26T06:35:12.098Z,46.13
2017-09-26T06:37:39.578Z,48.37
2017-09-26T06:40:07.161Z,44.20
2017-09-26T06:42:34.647Z,44.27
2017-09-26T06:45:02.144Z,44.67
2017-09-26T06:47:29.691Z,45.47
2017-09-26T06:49:57.974Z,45.40
2017-09-26T06:52:25.487Z,48.10
2017-09-26T06:54:52.945Z,45.60
2017-09-26T06:57:20.415Z,46.20
2017-09-26T06:59:47.922Z,45.47
2017-09-26T07:02:15.382Z,44.37
2017-09-26T07:04:42.851Z,48.70
2017-09-26T07:07:10.377Z,45.53
2017-09-26T07:09:37.971Z,47.10
2017-09-26T07:12:05.421Z,43.13
2017-09-26T07:14:32.876Z,46.40
2017-09-26T07:17:00.366Z,45.10
2017-09-26T07:19:27.821Z,48.03
2017-09-26T07:21:55.300Z,47.90
2017-09-26T07:24:22.952Z,45.90
2017-09-26T07:26:50.446Z,47.73
2017-09-26T07:29:17.906Z,46.73
2017-09-26T07:31:45.394Z,44.30
2017-09-26T07:34:13.660Z,44.73
2017-09-26T07:36:41.139Z,45.80
2017-09-26T07:39:09.415Z,47.30
2017-09-26T07:41:37.661Z,45.47
2017-09-26T07:44:05.129Z,46.20
2017-09-26T07:46:32.587Z,47.80
2017-09-26T07:49:00.094Z,47.67
2017-09-26T07:51:27.630Z,49.13
2017-09-26T07:53:55.097Z,50.93
2017-09-26T07:56:23.382Z,50.47
2017-09-26T07:58:50.865Z,53.20
2017-09-26T08:01:18.578Z,55.40
2017-09-26T08:03:47.021Z,51.00
2017-09-26T08:06:14.813Z,47.67
2017-09-26T08:08:42.501Z,46.77
2017-09-26T08:11:09.961Z,45.60
2017-09-26T08:13:37.538Z,44.73
2017-09-26T08:16:05.045Z,44.30
2017-09-26T08:18:32.645Z,45.10
2017-09-26T08:21:00.111Z,44.80
2017-09-26T08:23:27.578Z,43.20
2017-09-26T08:25:55.065Z,40.50
2017-09-26T08:28:22.549Z,42.30
2017-09-26T08:30:50.127Z,41.57
2017-09-26T08:33:18.345Z,43.47
2017-09-26T08:35:45.810Z,39.90
2017-09-26T08:38:13.353Z,43.33
2017-09-26T08:40:40.819Z,41.40
2017-09-26T08:43:08.309Z,40.37
2017-09-26T08:45:35.791Z,40.83
2017-09-26T08:48:03.244Z,43.17
2017-09-26T08:50:30.726Z,45.30
2017-09-26T08:52:58.221Z,43.30
2017-09-26T08:55:25.689Z,44.03
2017-09-26T08:57:54.100Z,42.33
2017-09-26T09:00:21.567Z,45.00
2017-09-26T09:02:49.045Z,45.83
2017-09-26T09:05:16.514Z,44.53
2017-09-26T09:07:43.997Z,49.20
2017-09-26T09:10:11.493Z,47.90
2017-09-26T09:12:39.906Z,45.57
2017-09-26T09:15:07.385Z,45.30
2017-09-26T09:17:34.850Z,47.37
2017-09-26T09:20:02.355Z,45.40
2017-09-26T09:22:30.606Z,44.70
2017-09-26T09:24:58.074Z,32.17
2017-09-26T09:27:25.570Z,41.83
2017-09-26T09:29:53.040Z,42.37
2017-09-26T09:32:20.510Z,41.47
2017-09-26T09:34:47.993Z,38.67
2017-09-26T09:37:15.494Z,42.57
2017-09-26T09:39:42.995Z,41.50
2017-09-26T09:42:10.474Z,45.67
2017-09-26T09:44:37.932Z,41.43
2017-09-26T09:47:05.417Z,42.20
2017-09-26T09:49:33.662Z,41.70
2017-09-26T09:52:01.147Z,42.97
2017-09-26T09:54:29.443Z,45.43
2017-09-26T09:56:56.942Z,41.90
2017-09-26T09:59:25.403Z,43.13
2017-09-26T10:01:52.946Z,42.80
2017-09-26T10:04:20.433Z,39.70
2017-09-26T10:06:47.884Z,37.07
2017-09-26T10:09:15.395Z,39.17
2017-09-26T10:11:43.668Z,37.93
2017-09-26T10:14:11.154Z,35.33
2017-09-26T10:16:38.644Z,37.50
2017-09-26T10:19:06.137Z,39.23
2017-09-26T10:21:33.612Z,33.37
2017-09-26T10:24:01.137Z,34.07
2017-09-26T10:26:28.609Z,36.50
2017-09-26T10:28:56.166Z,38.13
2017-09-26T10:31:23.658Z,36.73
2017-09-26T10:33:51.134Z,37.43
2017-09-26T10:36:18.582Z,37.20
2017-09-26T10:38:46.061Z,35.00
2017-09-26T10:41:13.518Z,34.83
2017-09-26T10:43:41.174Z,34.83
2017-09-26T10:46:08.698Z,31.53
2017-09-26T10:48:36.954Z,34.93
2017-09-26T10:51:04.433Z,35.00
2017-09-26T10:53:32.689Z,35.40
2017-09-26T10:56:00.175Z,35.20
2017-09-26T10:58:28.506Z,39.17
2017-09-26T11:00:57.201Z,36.77
2017-09-26T11:03:24.677Z,36.23
2017-09-26T11:05:52.184Z,35.53
2017-09-26T11:08:19.646Z,35.83
2017-09-26T11:10:47.116Z,32.93
2017-09-26T11:13:14.618Z,31.57
2017-09-26T11:15:42.099Z,33.87
2017-09-26T11:18:10.384Z,32.97
2017-09-26T11:20:37.889Z,33.90
2017-09-26T11:23:05.376Z,33.13
2017-09-26T11:25:32.833Z,33.55
2017-09-26T11:28:00.341Z,33.43
2017-09-26T11:30:27.806Z,35.00
2017-09-26T11:32:55.270Z,34.10
2017-09-26T11:35:22.765Z,32.17
2017-09-26T11:37:50.249Z,30.67
2017-09-26T11:40:17.719Z,31.10
2017-09-26T11:42:45.213Z,30.90
2017-09-26T11:45:12.705Z,31.80
2017-09-26T11:47:40.197Z,32.67
2017-09-26T11:50:07.733Z,31.93
2017-09-26T11:52:35.981Z,28.67
2017-09-26T11:55:03.517Z,28.37
2017-09-26T11:57:30.973Z,29.53
2017-09-26T11:59:58.435Z,28.43
2017-09-26T12:02:25.921Z,31.17
2017-09-26T12:04:53.397Z,29.87
2017-09-26T12:07:20.901Z,27.70
2017-09-26T12:09:48.381Z,26.80
2017-09-26T12:12:15.884Z,27.60
2017-09-26T12:14:43.344Z,28.00
2017-09-26T12:17:11.659Z,26.13
2017-09-26T12:19:39.133Z,29.20
2017-09-26T12:22:06.625Z,29.23
2017-09-26T12:24:34.861Z,25.93
2017-09-26T12:27:02.367Z,28.07
2017-09-26T12:29:29.829Z,26.67
2017-09-26T12:31:57.293Z,29.80
2017-09-26T12:34:24.781Z,27.87
2017-09-26T12:36:52.268Z,27.87
2017-09-26T12:39:19.751Z,29.03
2017-09-26T12:41:48.013Z,26.37
2017-09-26T12:44:15.488Z,28.67
2017-09-26T12:46:43.722Z,25.40
2017-09-26T12:49:11.287Z,27.23
2017-09-26T12:51:38.742Z,27.40
2017-09-26T12:54:06.278Z,26.80
2017-09-26T12:56:33.761Z,28.07
2017-09-26T12:59:01.285Z,25.70
2017-09-26T13:01:28.781Z,25.90
2017-09-26T13:03:56.250Z,24.90
2017-09-26T13:06:23.718Z,24.73
2017-09-26T13:08:51.203Z,24.67
2017-09-26T13:11:18.673Z,25.10
2017-09-26T13:13:46.184Z,25.77
2017-09-26T13:16:13.647Z,24.30
2017-09-26T13:18:41.125Z,24.77
2017-09-26T13:21:09.441Z,23.23
2017-09-26T13:23:36.910Z,23.77
2017-09-26T13:26:04.390Z,25.47
2017-09-26T13:28:31.881Z,23.67
2017-09-26T13:30:59.382Z,24.10
2017-09-26T13:33:26.861Z,23.37
2017-09-26T13:35:54.360Z,24.00
2017-09-26T13:38:22.593Z,24.00
2017-09-26T13:40:50.089Z,25.03
2017-09-26T13:43:18.323Z,26.57
2017-09-26T13:45:45.854Z,23.70
2017-09-26T13:48:13.308Z,23.37
2017-09-26T13:50:40.794Z,22.90
2017-09-26T13:53:08.270Z,24.50
2017-09-26T13:55:35.766Z,24.87
2017-09-26T13:58:03.994Z,25.77
2017-09-26T14:00:31.481Z,24.70
2017-09-26T14:03:00.385Z,25.33
2017-09-26T14:05:27.845Z,25.30
2017-09-26T14:07:55.337Z,25.77
2017-09-26T14:10:22.906Z,24.30
2017-09-26T14:12:50.373Z,24.43
2017-09-26T14:15:17.871Z,22.73
2017-09-26T14:17:46.144Z,24.27
2017-09-26T14:20:13.614Z,23.20
2017-09-26T14:22:41.114Z,24.10
2017-09-26T14:25:08.585Z,23.37
2017-09-26T14:27:36.052Z,23.57
2017-09-26T14:30:03.553Z,21.10
2017-09-26T14:32:31.798Z,22.90
2017-09-26T14:35:00.962Z,21.37
2017-09-26T14:37:28.466Z,21.63
2017-09-26T14:39:55.938Z,22.30
2017-09-26T14:42:24.201Z,22.87
2017-09-26T14:44:51.699Z,21.07
2017-09-26T14:47:19.197Z,21.33
2017-09-26T14:49:46.664Z,18.83
2017-09-26T14:52:14.179Z,21.10
2017-09-26T14:54:41.660Z,21.70
2017-09-26T14:57:09.149Z,20.80
2017-09-26T14:59:36.605Z,20.87
2017-09-26T15:02:04.077Z,20.83
2017-09-26T15:04:31.533Z,21.27
2017-09-26T15:07:00.717Z,20.33
2017-09-26T15:09:28.193Z,21.10
2017-09-26T15:11:56.419Z,22.83
2017-09-26T15:14:23.897Z,20.50
2017-09-26T15:16:51.354Z,20.77
2017-09-26T15:19:18.837Z,22.03
2017-09-26T15:21:46.300Z,20.90
2017-09-26T15:24:14.521Z,22.40
2017-09-26T15:26:42.017Z,23.03
2017-09-26T15:29:09.495Z,24.83
2017-09-26T15:31:37.756Z,22.83
2017-09-26T15:34:05.222Z,23.07
2017-09-26T15:36:32.714Z,22.70
2017-09-26T15:39:01.262Z,23.23
2017-09-26T15:41:28.722Z,22.70
2017-09-26T15:43:56.177Z,22.40
2017-09-26T15:46:23.672Z,22.37
2017-09-26T15:48:51.171Z,23.93
2017-09-26T15:51:18.643Z,23.70
2017-09-26T15:53:46.103Z,23.90
2017-09-26T15:56:13.603Z,24.80
2017-09-26T15:58:41.109Z,24.03
2017-09-26T16:01:08.603Z,25.20
2017-09-26T16:03:36.833Z,25.03
2017-09-26T16:06:04.382Z,22.93
2017-09-26T16:08:31.929Z,23.03
2017-09-26T16:10:59.456Z,23.37
2017-09-26T16:13:27.673Z,24.73
2017-09-26T16:15:55.197Z,23.57
2017-09-26T16:18:22.730Z,24.50
2017-09-26T16:20:50.191Z,25.30
2017-09-26T16:23:18.263Z,25.80
2017-09-26T16:25:46.096Z,25.57
2017-09-26T16:28:14.677Z,25.40
2017-09-26T16:30:42.389Z,25.73
2017-09-26T16:33:10.319Z,26.50
2017-09-26T16:35:38.076Z,27.00
2017-09-26T16:38:05.861Z,25.87
2017-09-26T16:40:34.277Z,28.10
2017-09-26T16:43:02.508Z,27.73
2017-09-26T16:45:30.090Z,29.87
2017-09-26T16:47:57.602Z,28.90
2017-09-26T16:50:25.170Z,28.17
2017-09-26T16:52:53.040Z,29.43
2017-09-26T16:55:20.586Z,31.70
2017-09-26T16:57:48.246Z,28.67
2017-09-26T17:00:16.215Z,32.20
2017-09-26T17:02:43.818Z,29.80
2017-09-26T17:05:11.292Z,31.08
2017-09-26T17:07:38.793Z,31.77
2017-09-26T17:10:06.551Z,33.50
2017-09-26T17:12:34.439Z,33.10
2017-09-26T17:15:03.489Z,32.67
2017-09-26T17:17:30.978Z,32.30
2017-09-26T17:19:58.442Z,32.70
2017-09-26T17:22:25.931Z,30.70
2017-09-26T17:24:53.413Z,32.00
2017-09-26T17:27:20.903Z,30.83
2017-09-26T17:29:48.520Z,30.90
2017-09-26T17:32:15.977Z,31.47
2017-09-26T17:34:43.469Z,31.77
2017-09-26T17:37:11.702Z,30.43
2017-09-26T17:39:39.148Z,34.57
2017-09-26T17:42:06.834Z,33.27
2017-09-26T17:44:34.345Z,33.47
2017-09-26T17:47:01.820Z,32.63
2017-09-26T17:49:29.472Z,32.07
2017-09-26T17:51:56.977Z,31.80
2017-09-26T17:54:24.463Z,30.50
2017-09-26T17:56:52.687Z,31.00
2017-09-26T17:59:20.227Z,33.43
2017-09-26T18:01:47.690Z,32.47
2017-09-26T18:04:15.151Z,30.80
2017-09-26T18:06:42.633Z,30.70
2017-09-26T18:09:10.125Z,32.97
2017-09-26T18:11:37.599Z,30.10
2017-09-26T18:14:05.073Z,31.53
2017-09-26T18:16:32.534Z,28.50
2017-09-26T18:19:00.031Z,29.90
2017-09-26T18:21:27.526Z,31.20
2017-09-26T18:23:55.754Z,31.27
2017-09-26T18:26:23.225Z,29.73
2017-09-26T18:28:50.709Z,31.00
2017-09-26T18:31:18.186Z,30.13
2017-09-26T18:33:46.429Z,28.70
2017-09-26T18:36:13.890Z,31.57
2017-09-26T18:38:41.376Z,31.37
2017-09-26T18:41:09.607Z,30.27
2017-09-26T18:43:37.067Z,32.13
2017-09-26T18:46:04.562Z,30.70
2017-09-26T18:48:32.819Z,30.67
2017-09-26T18:51:00.304Z,30.97
2017-09-26T18:53:28.545Z,31.83
2017-09-26T18:55:56.053Z,31.47
2017-09-26T18:58:23.506Z,33.30
2017-09-26T19:00:50.993Z,30.80
2017-09-26T19:03:18.508Z,33.13
2017-09-26T19:05:45.991Z,30.73
2017-09-26T19:08:13.457Z,34.37
2017-09-26T19:10:40.999Z,32.90
2017-09-26T19:13:09.226Z,31.77
2017-09-26T19:15:36.693Z,31.60
2017-09-26T19:18:05.102Z,32.00
2017-09-26T19:20:32.598Z,33.50
2017-09-26T19:23:00.079Z,29.30
2017-09-26T19:25:28.528Z,29.73
2017-09-26T19:27:56.190Z,30.67
2017-09-26T19:30:23.657Z,30.47
2017-09-26T19:32:51.138Z,29.90
2017-09-26T19:35:18.669Z,28.80
2017-09-26T19:37:46.133Z,31.07
2017-09-26T19:40:13.674Z,30.47
2017-09-26T19:42:41.169Z,28.83
2017-09-26T19:45:08.670Z,31.00
2017-09-26T19:47:36.194Z,32.97
2017-09-26T19:50:03.688Z,31.40
2017-09-26T19:52:31.978Z,32.70
2017-09-26T19:54:59.440Z,33.70
2017-09-26T19:57:26.947Z,32.57
2017-09-26T19:59:54.429Z,31.60
2017-09-26T20:02:21.934Z,33.20
2017-09-26T20:04:49.425Z,32.40
2017-09-26T20:07:16.904Z,33.45
2017-09-26T20:09:44.418Z,31.93
2017-09-26T20:12:11.904Z,30.53
2017-09-26T20:14:39.376Z,32.97
2017-09-26T20:17:06.911Z,31.67
2017-09-26T20:19:35.113Z,29.70
2017-09-26T20:22:02.656Z,26.10
2017-09-26T20:24:30.126Z,23.90
2017-09-26T20:26:57.607Z,26.17
2017-09-26T20:29:25.065Z,25.83
2017-09-26T20:31:52.550Z,30.03
2017-09-26T20:34:20.038Z,33.17
2017-09-26T20:36:47.524Z,33.60
2017-09-26T20:39:15.040Z,32.03
2017-09-26T20:41:42.517Z,31.03
2017-09-26T20:44:09.969Z,32.37
2017-09-26T20:46:37.465Z,32.20
2017-09-26T20:49:04.953Z,28.17
2017-09-26T20:51:32.433Z,27.70
2017-09-26T20:53:59.933Z,27.43
2017-09-26T20:56:27.399Z,22.47
2017-09-26T20:58:55.656Z,23.50
2017-09-26T21:01:24.845Z,23.00
2017-09-26T21:03:52.309Z,28.30
2017-09-26T21:06:19.798Z,30.60
2017-09-26T21:08:48.049Z,30.20
2017-09-26T21:11:15.522Z,31.97
2017-09-26T21:13:43.002Z,30.90
2017-09-26T21:16:10.467Z,31.10
2017-09-26T21:18:38.021Z,31.77
2017-09-26T21:21:07.173Z,30.93
2017-09-26T21:23:34.663Z,32.83
2017-09-26T21:26:02.145Z,30.40
2017-09-26T21:28:29.606Z,28.80
2017-09-26T21:30:57.105Z,27.60
2017-09-26T21:33:24.589Z,24.87
2017-09-26T21:35:52.086Z,24.13
2017-09-26T21:38:19.562Z,24.03
2017-09-26T21:40:47.058Z,22.87
2017-09-26T21:43:14.537Z,22.00
2017-09-26T21:45:42.039Z,19.20
2017-09-26T21:48:09.498Z,21.10
2017-09-26T21:50:37.534Z,18.90
2017-09-26T21:53:05.055Z,19.90
2017-09-26T21:55:32.500Z,18.47
2017-09-26T21:57:59.979Z,18.33
2017-09-26T22:00:27.474Z,19.70
2017-09-26T22:02:54.938Z,19.50
2017-09-26T22:05:22.436Z,18.17
2017-09-26T22:07:49.899Z,19.80
2017-09-26T22:10:17.385Z,18.93
2017-09-26T22:12:44.896Z,21.23
2017-09-26T22:15:12.425Z,20.50
2017-09-26T22:17:39.892Z,19.60
2017-09-26T22:20:08.939Z,19.58
2017-09-26T22:22:36.393Z,19.47
2017-09-26T22:25:03.943Z,20.30
2017-09-26T22:27:31.392Z,20.23
2017-09-26T22:29:58.849Z,20.03
2017-09-26T22:32:26.330Z,22.80
2017-09-26T22:34:53.794Z,21.53
2017-09-26T22:37:21.265Z,20.13
2017-09-26T22:39:49.495Z,21.93
2017-09-26T22:42:17.009Z,21.23
2017-09-26T22:44:44.468Z,22.10
2017-09-26T22:47:12.721Z,21.60
2017-09-26T22:49:40.203Z,23.63
2017-09-26T22:52:08.377Z,22.57
2017-09-26T22:54:36.632Z,22.70
2017-09-26T22:57:04.173Z,24.57
2017-09-26T22:59:31.659Z,22.47
2017-09-26T23:01:59.158Z,23.33
2017-09-26T23:04:26.631Z,22.20
2017-09-26T23:06:54.090Z,24.27
2017-09-26T23:09:21.652Z,24.97
2017-09-26T23:11:49.109Z,22.63
2017-09-26T23:14:16.569Z,23.93
2017-09-26T23:16:44.054Z,25.13
2017-09-26T23:19:11.550Z,26.83
2017-09-26T23:21:40.066Z,25.27
2017-09-26T23:24:07.525Z,23.60
2017-09-26T23:26:35.011Z,23.60
2017-09-26T23:29:02.492Z,24.40
2017-09-26T23:31:30.743Z,26.53
2017-09-26T23:33:58.198Z,24.73
2017-09-26T23:36:25.666Z,22.80
2017-09-26T23:38:53.165Z,26.33
2017-09-26T23:41:20.652Z,24.33
2017-09-26T23:43:48.120Z,25.20
2017-09-26T23:46:15.606Z,27.07
2017-09-26T23:48:43.074Z,26.33
2017-09-26T23:51:11.334Z,23.10
2017-09-26T23:53:38.794Z,25.23
2017-09-26T23:56:06.281Z,24.97
2017-09-26T23:58:33.839Z,27.60
